createdAt,value
2022-09-18T08:09:11.154Z,8.80
2022-09-18T08:11:38.038Z,8.80
2022-09-18T08:14:04.847Z,8.80
2022-09-18T08:16:31.721Z,8.80
2022-09-18T08:18:58.582Z,8.70
2022-09-18T08:21:25.508Z,8.80
2022-09-18T08:23:52.345Z,8.80
2022-09-18T08:26:22.367Z,9.10
2022-09-18T08:28:49.452Z,8.90
2022-09-18T08:31:16.385Z,9.20
2022-09-18T08:33:43.395Z,8.90
2022-09-18T08:36:10.228Z,8.80
2022-09-18T08:38:37.136Z,8.80
2022-09-18T08:41:44.355Z,8.80
2022-09-18T08:44:24.438Z,8.90
2022-09-18T08:47:07.932Z,8.90
2022-09-18T08:49:47.233Z,9.00
2022-09-18T08:52:21.067Z,9.10
2022-09-18T08:55:02.583Z,9.20
2022-09-18T08:57:46.457Z,9.30
2022-09-18T09:00:22.988Z,9.30
2022-09-18T09:02:53.454Z,9.30
2022-09-18T09:05:31.046Z,10.10
2022-09-18T09:08:35.122Z,9.30
2022-09-18T09:11:22.088Z,9.30
2022-09-18T09:14:00.498Z,9.90
2022-09-18T09:16:33.091Z,9.50
2022-09-18T09:19:02.145Z,9.50
2022-09-18T09:21:50.158Z,9.60
2022-09-18T09:24:28.787Z,9.70
2022-09-18T09:26:56.776Z,9.90
2022-09-18T09:29:30.275Z,9.90
2022-09-18T09:34:27.369Z,9.70
2022-09-18T09:36:57.238Z,9.70
2022-09-18T09:39:32.651Z,10.00
2022-09-18T09:42:07.647Z,9.90
2022-09-18T09:44:41.573Z,9.80
2022-09-18T09:47:33.008Z,9.80
2022-09-18T09:50:06.172Z,9.90
2022-09-18T09:52:33.339Z,10.00
2022-09-18T09:55:13.959Z,10.10
2022-09-18T09:58:05.266Z,10.20
2022-09-18T10:01:03.060Z,10.40
2022-09-18T10:03:46.251Z,10.50
2022-09-18T10:06:24.641Z,10.60
2022-09-18T10:09:00.191Z,10.70
2022-09-18T10:11:27.014Z,10.80
2022-09-18T10:14:10.979Z,10.80
2022-09-18T10:16:42.630Z,10.70
2022-09-18T10:19:15.682Z,10.70
2022-09-18T10:21:43.199Z,10.50
2022-09-18T10:24:17.156Z,10.60
2022-09-18T10:26:52.228Z,10.80
2022-09-18T10:29:19.004Z,10.90
2022-09-18T10:31:55.831Z,10.80
2022-09-18T10:34:45.700Z,10.70
2022-09-18T10:37:40.832Z,10.80
2022-09-18T10:40:37.110Z,10.80
2022-09-18T10:43:04.927Z,11.00
2022-09-18T10:45:38.002Z,10.90
2022-09-18T10:48:13.723Z,11.00
2022-09-18T10:51:01.698Z,11.00
2022-09-18T10:53:38.702Z,11.00
2022-09-18T10:56:16.919Z,11.10
2022-09-18T10:58:44.939Z,11.00
2022-09-18T11:01:13.902Z,11.00
2022-09-18T11:03:45.067Z,11.00
2022-09-18T11:06:24.436Z,11.00
2022-09-18T11:08:54.288Z,10.90
2022-09-18T11:11:22.911Z,10.90
2022-09-18T11:13:58.800Z,10.90
2022-09-18T11:16:30.049Z,10.90
2022-09-18T11:19:12.675Z,10.90
2022-09-18T11:21:48.667Z,10.80
2022-09-18T11:24:26.946Z,10.80
2022-09-18T11:26:59.862Z,10.90
2022-09-18T11:29:34.453Z,10.80
2022-09-18T11:32:18.488Z,10.90
2022-09-18T11:34:53.414Z,10.80
2022-09-18T11:37:31.276Z,10.80
2022-09-18T11:40:08.523Z,10.70
2022-09-18T11:42:46.551Z,10.60
2022-09-18T11:45:25.590Z,10.60
2022-09-18T11:48:00.766Z,10.70
2022-09-18T11:50:33.178Z,10.60
2022-09-18T11:53:05.987Z,10.60
2022-09-18T11:55:38.986Z,10.60
2022-09-18T11:58:31.593Z,10.70
2022-09-18T12:01:32.605Z,10.90
2022-09-18T12:04:10.137Z,11.30
2022-09-18T12:06:53.490Z,11.30
2022-09-18T12:09:37.732Z,11.40
2022-09-18T12:12:13.256Z,11.50
2022-09-18T12:15:07.542Z,11.50
2022-09-18T12:17:46.583Z,11.50
2022-09-18T12:20:36.034Z,11.60
2022-09-18T12:23:03.349Z,11.60
2022-09-18T12:26:15.130Z,11.50
2022-09-18T12:28:59.786Z,11.20
2022-09-18T12:31:38.861Z,11.00
2022-09-18T12:34:14.680Z,10.80
2022-09-18T12:36:58.143Z,10.70
2022-09-18T12:39:34.931Z,10.70
2022-09-18T12:42:16.656Z,10.60
2022-09-18T12:45:12.666Z,10.50
2022-09-18T12:47:48.179Z,10.40
2022-09-18T12:50:34.271Z,10.40
2022-09-18T12:53:26.567Z,10.50
2022-09-18T12:55:59.504Z,10.70
2022-09-18T12:58:47.472Z,10.90
2022-09-18T13:01:30.100Z,11.00
2022-09-18T13:04:05.655Z,11.20
2022-09-18T13:06:59.523Z,11.50
2022-09-18T13:09:33.584Z,11.70
2022-09-18T13:12:24.030Z,11.70
2022-09-18T13:15:01.362Z,12.10
2022-09-18T13:17:44.135Z,12.10
2022-09-18T13:20:23.353Z,12.10
2022-09-18T13:22:53.285Z,11.90
2022-09-18T13:25:37.213Z,11.70
2022-09-18T13:28:07.817Z,11.70
2022-09-18T13:30:34.503Z,11.70
2022-09-18T13:33:02.583Z,11.70
2022-09-18T13:35:39.463Z,11.70
2022-09-18T13:38:09.026Z,11.70
2022-09-18T13:40:48.250Z,11.80
2022-09-18T13:43:29.473Z,11.80
2022-09-18T13:45:57.976Z,11.70
2022-09-18T13:48:34.639Z,11.70
2022-09-18T13:51:07.425Z,11.70
2022-09-18T13:53:38.238Z,11.70
2022-09-18T13:56:07.229Z,11.50
2022-09-18T13:58:48.278Z,11.50
2022-09-18T14:01:34.939Z,11.70
2022-09-18T14:04:01.783Z,11.70
2022-09-18T14:06:37.664Z,11.70
2022-09-18T14:09:26.096Z,11.80
2022-09-18T14:11:53.752Z,11.80
2022-09-18T14:55:40.765Z,12.00
2022-09-18T14:58:13.523Z,12.00
2022-09-18T15:00:40.544Z,12.00
2022-09-18T15:03:16.378Z,12.00
2022-09-18T15:05:43.603Z,11.90
2022-09-18T15:08:22.548Z,12.00
2022-09-18T15:10:53.533Z,12.10
2022-09-18T15:13:21.881Z,12.10
2022-09-18T15:16:01.525Z,12.10
2022-09-18T15:18:30.334Z,12.10
2022-09-18T15:20:59.326Z,12.10
2022-09-18T15:23:34.869Z,12.00
2022-09-18T15:26:05.539Z,11.90
2022-09-18T15:28:34.987Z,12.00
2022-09-18T15:31:08.906Z,11.90
2022-09-18T15:33:39.054Z,11.90
2022-09-18T15:36:06.205Z,11.80
2022-09-18T15:38:43.010Z,11.80
2022-09-18T15:41:37.896Z,11.80
2022-09-18T15:44:05.777Z,11.70
2022-09-18T15:46:35.711Z,11.70
2022-09-18T15:49:23.633Z,11.70
2022-09-18T15:51:50.437Z,11.60
2022-09-18T15:54:17.068Z,11.60
2022-09-18T15:56:58.343Z,11.60
2022-09-18T15:59:44.718Z,11.50
2022-09-18T16:02:30.393Z,11.40
2022-09-18T16:05:06.987Z,11.50
2022-09-18T16:07:33.720Z,11.40
2022-09-18T16:10:00.384Z,11.30
2022-09-18T16:12:29.840Z,11.40
2022-09-18T16:14:56.442Z,11.30
2022-09-18T16:17:29.311Z,11.30
2022-09-18T16:19:58.390Z,11.30
2022-09-18T16:22:29.953Z,11.20
2022-09-18T16:24:58.007Z,11.20
2022-09-18T16:27:26.219Z,11.20
2022-09-18T16:29:52.959Z,11.10
2022-09-18T16:32:21.696Z,11.20
2022-09-18T16:34:48.459Z,11.10
2022-09-18T16:37:17.374Z,11.20
2022-09-18T16:39:44.668Z,11.10
2022-09-18T16:42:17.773Z,11.10
2022-09-18T16:44:45.435Z,11.10
2022-09-18T16:47:14.675Z,11.10
2022-09-18T16:49:44.242Z,11.00
2022-09-18T16:52:11.762Z,10.90
2022-09-18T16:54:38.554Z,10.90
2022-09-18T16:57:18.300Z,10.90
2022-09-18T16:59:45.424Z,10.90
2022-09-18T17:02:16.393Z,10.80
2022-09-18T17:04:43.158Z,10.80
2022-09-18T17:07:09.902Z,10.80
2022-09-18T17:09:36.650Z,10.80
2022-09-18T17:12:03.897Z,10.80
2022-09-18T17:14:30.566Z,10.80
2022-09-18T17:16:57.388Z,10.80
2022-09-18T17:19:24.223Z,10.70
2022-09-18T17:21:51.186Z,10.80
2022-09-18T17:24:23.902Z,10.70
2022-09-18T17:26:50.588Z,10.80
2022-09-18T17:29:17.281Z,10.70
2022-09-18T17:31:44.716Z,10.70
2022-09-18T17:34:12.267Z,10.70
2022-09-18T17:36:40.169Z,10.70
2022-09-18T17:39:07.417Z,10.70
2022-09-18T17:41:34.217Z,10.70
2022-09-18T17:44:00.961Z,10.70
2022-09-18T17:46:28.067Z,10.70
2022-09-18T17:48:56.736Z,10.60
2022-09-18T17:51:28.233Z,10.70
2022-09-18T17:54:02.839Z,10.70
2022-09-18T17:56:30.589Z,10.70
2022-09-18T17:59:00.099Z,10.50
2022-09-18T18:01:28.252Z,10.70
2022-09-18T18:03:55.362Z,10.70
2022-09-18T18:06:22.186Z,10.60
2022-09-18T18:08:50.178Z,10.60
2022-09-18T18:11:19.023Z,10.60
2022-09-18T18:13:46.943Z,10.60
2022-09-18T18:16:22.028Z,10.60
2022-09-18T18:18:50.475Z,10.60
2022-09-18T18:21:18.327Z,10.60
2022-09-18T18:23:45.183Z,10.60
2022-09-18T18:26:12.759Z,10.60
2022-09-18T18:28:40.969Z,10.60
2022-09-18T18:31:12.102Z,10.60
2022-09-18T18:33:42.511Z,10.70
2022-09-18T18:36:13.110Z,10.60
2022-09-18T18:38:41.447Z,10.60
2022-09-18T18:41:09.154Z,10.60
2022-09-18T18:43:37.771Z,10.60
2022-09-18T18:46:09.351Z,10.50
2022-09-18T18:48:36.802Z,10.50
2022-09-18T18:51:08.686Z,10.50
2022-09-18T18:53:38.731Z,10.50
2022-09-18T18:56:11.001Z,10.50
2022-09-18T18:58:37.877Z,10.50
2022-09-18T19:01:06.705Z,10.50
2022-09-18T19:03:38.129Z,10.40
2022-09-18T19:06:06.680Z,10.30
2022-09-18T19:08:35.601Z,10.40
2022-09-18T19:11:03.768Z,10.30
2022-09-18T19:13:31.022Z,10.30
2022-09-18T19:15:57.728Z,10.30
2022-09-18T19:18:24.471Z,10.30
2022-09-18T19:20:53.534Z,10.30
2022-09-18T19:23:20.882Z,10.30
2022-09-18T19:25:47.629Z,10.30
2022-09-18T19:28:17.647Z,10.20
2022-09-18T19:30:47.118Z,10.20
2022-09-18T19:33:17.481Z,10.20
2022-09-18T19:35:44.220Z,10.20
2022-09-18T19:38:17.997Z,10.20
2022-09-18T19:40:46.611Z,10.10
2022-09-18T19:43:21.080Z,10.30
2022-09-18T19:45:48.672Z,10.10
2022-09-18T19:48:27.418Z,10.00
2022-09-18T19:50:54.610Z,10.10
2022-09-18T19:53:22.178Z,10.10
2022-09-18T19:55:49.131Z,10.10
2022-09-18T19:58:16.717Z,10.10
2022-09-18T20:00:45.233Z,10.00
2022-09-18T20:03:12.633Z,10.10
2022-09-18T20:05:40.306Z,10.10
2022-09-18T20:08:08.087Z,10.10
2022-09-18T20:10:37.225Z,10.10
2022-09-18T20:13:04.480Z,10.20
2022-09-18T20:15:31.220Z,10.10
2022-09-18T20:17:58.307Z,10.10
2022-09-18T20:20:25.906Z,10.10
2022-09-18T20:22:56.377Z,10.00
2022-09-18T20:25:25.162Z,10.00
2022-09-18T20:27:51.847Z,9.90
2022-09-18T20:30:19.521Z,9.90
2022-09-18T20:32:46.348Z,9.90
2022-09-18T20:35:13.252Z,9.90
2022-09-18T20:37:39.958Z,9.90
2022-09-18T20:40:10.035Z,9.90
2022-09-18T20:42:36.825Z,9.90
2022-09-18T20:45:03.997Z,9.80
2022-09-18T20:47:34.742Z,9.90
2022-09-18T20:50:13.290Z,9.90
2022-09-18T20:52:42.899Z,9.80
